Terminal Aerodrome Forecast
Issued by NWS

Home | Current Version | Previous Version | Text Only | Print | Product List | Glossary On
Versions: 1 2 3 4 5 6 7 8 9 10 11 12
715
FTUS44 KEPZ 170534
TAFTCS
TAF
KTCS 170534Z 1706/1806 29010KT P6SM SCT150 BKN250
     FM171400 02005KT P6SM VCSH BKN080 OVC120
     FM172000 02006KT P6SM -SHRA BKN050 OVC100
     FM180400 36008KT P6SM VCSH BKN050 OVC100=

USA.gov is the U.S. government's official web portal to all federal, state and local government web resources and services.